createdAt,value
2017-09-11T00:00:09.681Z,15.76
2017-09-11T00:01:09.659Z,15.77
2017-09-11T00:02:09.941Z,15.76
2017-09-11T00:03:09.610Z,15.68
2017-09-11T00:04:09.910Z,15.65
2017-09-11T00:05:09.570Z,15.79
2017-09-11T00:06:09.878Z,15.76
2017-09-11T00:07:09.861Z,15.67
2017-09-11T00:08:09.837Z,15.68
2017-09-11T00:09:09.512Z,15.76
2017-09-11T00:10:09.789Z,15.69
2017-09-11T00:11:09.780Z,15.64
2017-09-11T00:12:09.789Z,15.69
2017-09-11T00:13:09.784Z,15.77
2017-09-11T00:14:09.757Z,15.75
2017-09-11T00:15:09.711Z,15.71
2017-09-11T00:16:09.696Z,15.61
2017-09-11T00:17:09.681Z,15.68
2017-09-11T00:18:09.661Z,15.75
2017-09-11T00:19:09.642Z,15.61
2017-09-11T00:20:09.309Z,15.65
2017-09-11T00:21:09.600Z,15.6
2017-09-11T00:22:09.590Z,15.58
2017-09-11T00:23:09.560Z,15.58
2017-09-11T00:24:09.562Z,15.71
2017-09-11T00:25:09.533Z,15.58
2017-09-11T00:26:09.512Z,15.53
2017-09-11T00:27:09.511Z,15.6
2017-09-11T00:28:09.490Z,15.68
2017-09-11T00:29:09.478Z,15.6
2017-09-11T00:30:09.146Z,15.58
2017-09-11T00:31:09.418Z,15.75
2017-09-11T00:32:09.424Z,15.75
2017-09-11T00:33:09.075Z,15.61
2017-09-11T00:34:09.051Z,15.64
2017-09-11T00:35:09.035Z,15.75
2017-09-11T00:36:08.708Z,15.75
2017-09-11T00:37:09.315Z,15.75
2017-09-11T00:38:09.279Z,15.77
2017-09-11T00:39:08.660Z,15.77
2017-09-11T00:40:08.949Z,15.72
2017-09-11T00:41:09.237Z,15.72
2017-09-11T00:42:09.219Z,15.75
2017-09-11T00:43:09.209Z,15.77
2017-09-11T00:44:09.184Z,15.9
2017-09-11T00:45:09.166Z,16.02
2017-09-11T00:46:09.150Z,15.85
2017-09-11T00:47:09.139Z,15.75
2017-09-11T00:48:09.120Z,15.77
2017-09-11T00:49:09.088Z,15.76
2017-09-11T00:50:09.080Z,15.77
2017-09-11T00:51:08.753Z,15.79
2017-09-11T00:52:08.736Z,15.75
2017-09-11T00:53:08.713Z,15.72
2017-09-11T00:54:09.010Z,15.71
2017-09-11T00:55:08.986Z,15.68
2017-09-11T00:56:08.656Z,15.68
2017-09-11T00:57:08.950Z,15.58
2017-09-11T00:58:08.628Z,15.54
2017-09-11T00:59:08.613Z,15.57
2017-09-11T01:00:08.589Z,15.46
2017-09-11T01:01:08.889Z,15.44
2017-09-11T01:02:08.560Z,15.52
2017-09-11T01:03:08.227Z,15.5
2017-09-11T01:04:08.530Z,15.54
2017-09-11T01:05:08.490Z,15.61
2017-09-11T01:06:08.490Z,15.67
2017-09-11T01:07:08.772Z,15.64
2017-09-11T01:08:08.444Z,15.57
2017-09-11T01:09:08.752Z,15.49
2017-09-11T01:10:08.109Z,15.46
2017-09-11T01:11:08.402Z,15.6
2017-09-11T01:12:08.372Z,15.58
2017-09-11T01:13:08.351Z,15.57
2017-09-11T01:14:08.033Z,15.53
2017-09-11T01:15:08.326Z,15.53
2017-09-11T01:16:08.309Z,15.58
2017-09-11T01:17:08.592Z,15.58
2017-09-11T01:18:08.265Z,15.64
2017-09-11T01:19:08.246Z,15.57
2017-09-11T01:20:08.540Z,15.61
2017-09-11T01:21:08.208Z,15.62
2017-09-11T01:22:07.901Z,15.68
2017-09-11T01:23:08.178Z,15.75
2017-09-11T01:24:08.469Z,15.72
2017-09-11T01:25:08.149Z,15.72
2017-09-11T01:26:08.432Z,15.62
2017-09-11T01:27:08.419Z,15.68
2017-09-11T01:28:08.080Z,15.72
2017-09-11T01:29:08.059Z,15.75
2017-09-11T01:30:08.051Z,15.77
2017-09-11T01:31:08.340Z,15.64
2017-09-11T01:32:08.319Z,15.71
2017-09-11T01:33:07.989Z,15.76
2017-09-11T01:34:08.289Z,15.72
2017-09-11T01:35:07.960Z,15.65
2017-09-11T01:36:07.979Z,15.76
2017-09-11T01:37:08.239Z,15.79
2017-09-11T01:38:08.230Z,15.8
2017-09-11T01:39:08.202Z,15.86
2017-09-11T01:40:07.645Z,16.01
2017-09-11T01:41:07.860Z,15.98
2017-09-11T01:42:07.580Z,16.01
2017-09-11T01:43:08.120Z,16.01
2017-09-11T01:44:08.114Z,16
2017-09-11T01:45:08.101Z,15.86
2017-09-11T01:46:07.809Z,15.82
2017-09-11T01:47:08.054Z,15.92
2017-09-11T01:48:07.783Z,16
2017-09-11T01:49:07.709Z,15.89
2017-09-11T01:50:08.009Z,15.79
2017-09-11T01:51:07.676Z,15.8
2017-09-11T01:52:07.964Z,15.77
2017-09-11T01:53:07.958Z,15.79
2017-09-11T01:54:07.923Z,15.75
2017-09-11T01:55:07.921Z,15.75
2017-09-11T01:56:07.588Z,15.8
2017-09-11T01:57:07.881Z,15.77
2017-09-11T01:58:07.872Z,15.83
2017-09-11T01:59:07.839Z,15.68
2017-09-11T02:00:07.310Z,15.47
2017-09-11T02:01:07.532Z,15.46
2017-09-11T02:02:07.515Z,15.47
2017-09-11T02:03:07.557Z,15.4
2017-09-11T02:04:07.450Z,15.6
2017-09-11T02:05:07.502Z,15.53
2017-09-11T02:06:07.709Z,15.46
2017-09-11T02:07:07.689Z,15.46
2017-09-11T02:08:07.676Z,15.6
2017-09-11T02:09:07.671Z,15.54
2017-09-11T02:10:07.661Z,15.49
2017-09-11T02:11:07.383Z,15.57
2017-09-11T02:12:07.290Z,15.65
2017-09-11T02:13:06.970Z,15.49
2017-09-11T02:14:07.262Z,15.4
2017-09-11T02:15:07.240Z,15.49
2017-09-11T02:16:07.237Z,15.35
2017-09-11T02:17:07.518Z,15.32
2017-09-11T02:18:07.199Z,15.42
2017-09-11T02:19:07.496Z,15.47
2017-09-11T02:20:07.468Z,15.5
2017-09-11T02:21:07.458Z,15.43
2017-09-11T02:22:07.425Z,15.52
2017-09-11T02:23:07.111Z,15.44
2017-09-11T02:24:07.390Z,15.46
2017-09-11T02:25:07.399Z,15.43
2017-09-11T02:26:07.363Z,15.46
2017-09-11T02:27:07.350Z,15.54
2017-09-11T02:28:07.320Z,15.49
2017-09-11T02:29:07.299Z,15.53
2017-09-11T02:30:06.979Z,15.43
2017-09-11T02:31:07.339Z,15.35
2017-09-11T02:32:06.941Z,15.4
2017-09-11T02:33:07.249Z,15.46
2017-09-11T02:34:06.597Z,15.52
2017-09-11T02:35:07.209Z,15.52
2017-09-11T02:36:07.181Z,15.53
2017-09-11T02:37:07.162Z,15.42
2017-09-11T02:38:07.149Z,15.37
2017-09-11T02:39:07.133Z,15.43
2017-09-11T02:40:07.114Z,15.49
2017-09-11T02:41:06.783Z,15.49
2017-09-11T02:42:07.076Z,15.53
2017-09-11T02:43:06.760Z,15.54
2017-09-11T02:44:07.044Z,15.46
2017-09-11T02:45:06.711Z,15.61
2017-09-11T02:46:07.004Z,15.52
2017-09-11T02:47:06.659Z,15.61
2017-09-11T02:48:06.660Z,15.49
2017-09-11T02:49:06.634Z,15.65
2017-09-11T02:50:06.620Z,15.57
2017-09-11T02:51:06.602Z,15.53
2017-09-11T02:52:06.280Z,15.5
2017-09-11T02:53:06.880Z,15.61
2017-09-11T02:54:06.570Z,15.58
2017-09-11T02:55:06.839Z,15.49
2017-09-11T02:56:06.508Z,15.58
2017-09-11T02:57:06.499Z,15.5
2017-09-11T02:58:06.790Z,15.49
2017-09-11T02:59:06.469Z,15.53
2017-09-11T03:00:06.760Z,15.53
2017-09-11T03:01:06.736Z,15.52
2017-09-11T03:02:06.431Z,15.54
2017-09-11T03:03:06.388Z,15.58
2017-09-11T03:04:06.112Z,15.57
2017-09-11T03:05:06.043Z,15.62
2017-09-11T03:06:06.428Z,15.54
2017-09-11T03:07:06.310Z,15.43
2017-09-11T03:08:06.600Z,15.4
2017-09-11T03:09:06.600Z,15.5
2017-09-11T03:10:06.265Z,15.49
2017-09-11T03:11:06.542Z,15.49
2017-09-11T03:12:06.543Z,15.54
2017-09-11T03:13:05.889Z,15.5
2017-09-11T03:14:06.199Z,15.52
2017-09-11T03:15:06.477Z,15.53
2017-09-11T03:16:06.570Z,15.53
2017-09-11T03:17:06.438Z,15.46
2017-09-11T03:18:06.171Z,15.44
2017-09-11T03:19:06.089Z,15.5
2017-09-11T03:20:06.402Z,15.53
2017-09-11T03:21:06.380Z,15.43
2017-09-11T03:22:06.170Z,15.5
2017-09-11T03:23:06.070Z,15.53
2017-09-11T03:24:06.113Z,15.58
2017-09-11T03:25:06.011Z,15.5
2017-09-11T03:26:06.298Z,15.54
2017-09-11T03:27:05.950Z,15.68
2017-09-11T03:28:05.940Z,15.52
2017-09-11T03:29:06.239Z,15.43
2017-09-11T03:30:06.298Z,15.44
2017-09-11T03:31:06.283Z,15.42
2017-09-11T03:32:06.178Z,15.52
2017-09-11T03:33:06.258Z,15.49
2017-09-11T03:34:06.248Z,15.62
2017-09-11T03:35:06.196Z,15.58
2017-09-11T03:36:05.869Z,15.65
2017-09-11T03:37:06.093Z,15.67
2017-09-11T03:38:06.163Z,15.71
2017-09-11T03:39:05.822Z,15.6
2017-09-11T03:40:05.456Z,15.54
2017-09-11T03:41:06.059Z,15.54
2017-09-11T03:42:06.072Z,15.44
2017-09-11T03:43:05.739Z,15.54
2017-09-11T03:44:05.659Z,15.53
2017-09-11T03:45:05.712Z,15.5
2017-09-11T03:46:06.037Z,15.49
2017-09-11T03:47:06.008Z,15.65
2017-09-11T03:48:05.263Z,15.72
2017-09-11T03:49:05.916Z,15.69
2017-09-11T03:50:05.241Z,15.79
2017-09-11T03:51:05.529Z,15.72
2017-09-11T03:52:05.819Z,15.76
2017-09-11T03:53:05.800Z,15.79
2017-09-11T03:54:05.459Z,15.71
2017-09-11T03:55:05.139Z,15.75
2017-09-11T03:56:05.430Z,15.54
2017-09-11T03:57:05.419Z,15.65
2017-09-11T03:58:05.719Z,15.62
2017-09-11T03:59:05.070Z,15.62
2017-09-11T04:00:05.663Z,15.67
2017-09-11T04:01:05.364Z,15.68
2017-09-11T04:02:05.725Z,15.67
2017-09-11T04:03:05.299Z,15.6
2017-09-11T04:04:05.289Z,15.69
2017-09-11T04:05:04.972Z,15.75
2017-09-11T04:06:05.565Z,15.57
2017-09-11T04:07:05.270Z,15.64
2017-09-11T04:08:05.210Z,15.58
2017-09-11T04:09:05.510Z,15.58
2017-09-11T04:10:04.877Z,15.44
2017-09-11T04:11:05.170Z,15.43
2017-09-11T04:12:05.152Z,15.39
2017-09-11T04:13:05.440Z,15.35
2017-09-11T04:14:05.109Z,15.44
2017-09-11T04:15:05.113Z,15.27
2017-09-11T04:16:05.373Z,15.25
2017-09-11T04:17:05.059Z,15.17
2017-09-11T04:18:05.449Z,15.21
2017-09-11T04:19:05.019Z,15.16
2017-09-11T04:20:04.701Z,15.17
2017-09-11T04:21:05.299Z,15.1
2017-09-11T04:22:04.969Z,14.92
2017-09-11T04:23:04.951Z,15
2017-09-11T04:24:04.938Z,14.89
2017-09-11T04:25:04.910Z,14.92
2017-09-11T04:26:04.896Z,14.91
2017-09-11T04:27:04.880Z,14.85
2017-09-11T04:28:05.181Z,14.68
2017-09-11T04:29:05.152Z,14.8
2017-09-11T04:30:04.832Z,14.87
2017-09-11T04:31:05.109Z,14.73
2017-09-11T04:32:05.112Z,14.6
2017-09-11T04:33:05.106Z,14.6
2017-09-11T04:34:04.750Z,14.7
2017-09-11T04:35:05.049Z,14.65
2017-09-11T04:36:05.037Z,14.84
2017-09-11T04:37:05.013Z,14.88
2017-09-11T04:38:04.688Z,14.89
2017-09-11T04:39:04.677Z,14.91
2017-09-11T04:40:05.010Z,15
2017-09-11T04:41:04.935Z,14.94
2017-09-11T04:42:04.930Z,14.89
2017-09-11T04:43:04.899Z,15.04
2017-09-11T04:44:04.880Z,14.95
2017-09-11T04:45:04.560Z,15.07
2017-09-11T04:46:04.533Z,14.85
2017-09-11T04:47:04.810Z,14.84
2017-09-11T04:48:04.807Z,14.87
2017-09-11T04:49:04.808Z,14.88
2017-09-11T04:50:04.770Z,14.89
2017-09-11T04:51:04.763Z,14.8
2017-09-11T04:52:04.745Z,14.92
2017-09-11T04:53:04.721Z,14.96
2017-09-11T04:54:04.699Z,14.95
2017-09-11T04:55:04.690Z,14.94
2017-09-11T04:56:04.682Z,14.95
2017-09-11T04:57:04.330Z,15.04
2017-09-11T04:58:04.683Z,15.06
2017-09-11T04:59:04.300Z,15.17
2017-09-11T05:00:04.586Z,15.07
2017-09-11T05:01:04.259Z,14.79
2017-09-11T05:02:04.249Z,14.91
2017-09-11T05:03:04.538Z,14.95
2017-09-11T05:04:04.266Z,14.96
2017-09-11T05:05:03.880Z,15
2017-09-11T05:06:04.180Z,14.94
2017-09-11T05:07:04.148Z,14.98
2017-09-11T05:08:04.186Z,15
2017-09-11T05:09:04.421Z,15
2017-09-11T05:10:04.138Z,14.94
2017-09-11T05:11:04.410Z,15.02
2017-09-11T05:12:04.383Z,14.95
2017-09-11T05:13:04.371Z,14.96
2017-09-11T05:14:04.029Z,14.94
2017-09-11T05:15:04.325Z,15.06
2017-09-11T05:16:04.349Z,14.94
2017-09-11T05:17:04.341Z,15.04
2017-09-11T05:18:04.280Z,15.02
2017-09-11T05:19:04.257Z,15.04
2017-09-11T05:20:03.922Z,15.1
2017-09-11T05:21:03.594Z,14.85
2017-09-11T05:22:03.880Z,14.91
2017-09-11T05:23:04.170Z,14.89
2017-09-11T05:24:03.525Z,14.82
2017-09-11T05:25:03.823Z,15.02
2017-09-11T05:26:03.810Z,15.14
2017-09-11T05:27:03.790Z,15.22
2017-09-11T05:28:03.767Z,15.12
2017-09-11T05:29:04.078Z,15.13
2017-09-11T05:30:04.140Z,15.14
2017-09-11T05:31:03.724Z,15.07
2017-09-11T05:32:04.099Z,15.07
2017-09-11T05:33:03.689Z,15.16
2017-09-11T05:34:03.659Z,15.2
2017-09-11T05:35:03.952Z,15.13
2017-09-11T05:36:03.637Z,15.12
2017-09-11T05:37:03.609Z,15.17
2017-09-11T05:38:03.898Z,15.16
2017-09-11T05:39:03.569Z,15.27
2017-09-11T05:40:03.583Z,15.25
2017-09-11T05:41:03.541Z,15.27
2017-09-11T05:42:03.832Z,15.28
2017-09-11T05:43:03.811Z,14.96
2017-09-11T05:44:03.829Z,14.84
2017-09-11T05:45:03.470Z,14.98
2017-09-11T05:46:03.440Z,14.84
2017-09-11T05:47:03.431Z,15
2017-09-11T05:48:03.719Z,14.92
2017-09-11T05:49:03.081Z,15
2017-09-11T05:50:03.369Z,14.92
2017-09-11T05:51:03.660Z,15.03
2017-09-11T05:52:03.338Z,14.92
2017-09-11T05:53:03.627Z,14.96
2017-09-11T05:54:02.988Z,14.95
2017-09-11T05:55:03.280Z,15.06
2017-09-11T05:56:02.949Z,15.07
2017-09-11T05:57:03.561Z,15.1
2017-09-11T05:58:03.230Z,15.24
2017-09-11T05:59:03.529Z,15.22
2017-09-11T06:00:03.501Z,15.07
2017-09-11T06:01:03.479Z,15.13
2017-09-11T06:02:03.469Z,15.13
2017-09-11T06:03:03.445Z,15.17
2017-09-11T06:04:03.119Z,15.17
2017-09-11T06:05:03.412Z,15.14
2017-09-11T06:06:03.089Z,15.25
2017-09-11T06:07:03.068Z,15.22
2017-09-11T06:08:03.050Z,15.37
2017-09-11T06:09:03.352Z,15.29
2017-09-11T06:10:03.315Z,15.29
2017-09-11T06:11:03.009Z,15.43
2017-09-11T06:12:03.301Z,15.39
2017-09-11T06:13:02.959Z,15.37
2017-09-11T06:14:02.937Z,15.35
2017-09-11T06:15:03.228Z,15.32
2017-09-11T06:16:03.222Z,15.14
2017-09-11T06:17:02.571Z,15.17
2017-09-11T06:18:02.554Z,15.22
2017-09-11T06:19:03.170Z,15.16
2017-09-11T06:20:02.530Z,15.13
2017-09-11T06:21:02.830Z,15.12
2017-09-11T06:22:03.119Z,15.2
2017-09-11T06:23:02.790Z,15.2
2017-09-11T06:24:02.770Z,15.07
2017-09-11T06:25:03.060Z,15.12
2017-09-11T06:26:02.426Z,15.13
2017-09-11T06:27:02.398Z,15.1
2017-09-11T06:28:02.718Z,15.16
2017-09-11T06:29:02.669Z,15.25
2017-09-11T06:30:02.645Z,15.42
2017-09-11T06:31:02.648Z,15.5
2017-09-11T06:32:02.320Z,15.47
2017-09-11T06:33:02.609Z,15.5
2017-09-11T06:34:02.593Z,15.5
2017-09-11T06:35:02.569Z,15.43
2017-09-11T06:36:02.850Z,15.44
2017-09-11T06:37:02.826Z,15.39
2017-09-11T06:38:02.500Z,15.28
2017-09-11T06:39:02.530Z,15.37
2017-09-11T06:40:02.474Z,15.4
2017-09-11T06:41:02.769Z,15.42
2017-09-11T06:42:02.439Z,15.47
2017-09-11T06:43:02.424Z,15.28
2017-09-11T06:44:02.719Z,15.2
2017-09-11T06:45:02.704Z,15.14
2017-09-11T06:46:02.679Z,15.17
2017-09-11T06:47:02.659Z,15.13
2017-09-11T06:48:02.343Z,15.12
2017-09-11T06:49:02.020Z,15.13
2017-09-11T06:50:02.598Z,15.13
2017-09-11T06:51:02.610Z,15.1
2017-09-11T06:52:02.579Z,15.17
2017-09-11T06:53:02.565Z,15.12
2017-09-11T06:54:02.228Z,15.12
2017-09-11T06:55:02.577Z,15.16
2017-09-11T06:56:02.510Z,15.22
2017-09-11T06:57:02.482Z,15.25
2017-09-11T06:58:02.460Z,15.29
2017-09-11T06:59:02.460Z,15.1
2017-09-11T07:00:02.430Z,15.06
2017-09-11T07:01:02.410Z,14.91
2017-09-11T07:02:02.400Z,14.89
2017-09-11T07:03:02.376Z,14.7
2017-09-11T07:04:02.360Z,14.72
2017-09-11T07:05:02.354Z,14.79
2017-09-11T07:06:02.319Z,14.89
2017-09-11T07:07:02.315Z,14.85
2017-09-11T07:08:02.280Z,14.96
2017-09-11T07:09:02.269Z,15.07
2017-09-11T07:10:01.629Z,15.12
2017-09-11T07:11:01.926Z,15.1
2017-09-11T07:12:01.920Z,15.1
2017-09-11T07:13:01.879Z,15.1
2017-09-11T07:14:02.178Z,15.16
2017-09-11T07:15:02.168Z,15.22
2017-09-11T07:16:01.820Z,15.21
2017-09-11T07:17:01.798Z,15.28
2017-09-11T07:18:01.488Z,15.21
2017-09-11T07:19:01.781Z,15.29
2017-09-11T07:20:01.448Z,15.32
2017-09-11T07:21:02.059Z,15.46
2017-09-11T07:22:02.018Z,15.44
2017-09-11T07:23:01.709Z,15.52
2017-09-11T07:24:02.000Z,15.52
2017-09-11T07:25:01.988Z,15.57
2017-09-11T07:26:01.959Z,15.67
2017-09-11T07:27:01.949Z,15.76
2017-09-11T07:28:01.919Z,15.89
2017-09-11T07:29:01.910Z,15.87
2017-09-11T07:30:01.903Z,15.72
2017-09-11T07:31:01.259Z,15.65
2017-09-11T07:32:01.860Z,15.76
2017-09-11T07:33:01.838Z,15.79
2017-09-11T07:34:01.208Z,15.68
2017-09-11T07:35:01.809Z,15.72
2017-09-11T07:36:01.180Z,15.77
2017-09-11T07:37:01.458Z,15.92
2017-09-11T07:38:01.741Z,15.92
2017-09-11T07:39:01.107Z,15.97
2017-09-11T07:40:01.092Z,16.16
2017-09-11T07:41:01.403Z,16.2
2017-09-11T07:42:01.059Z,16.38
2017-09-11T07:43:01.667Z,16.34
2017-09-11T07:44:01.354Z,16.27
2017-09-11T07:45:01.318Z,16.34
2017-09-11T07:46:01.636Z,16.26
2017-09-11T07:47:00.979Z,16.23
2017-09-11T07:48:01.608Z,16.17
2017-09-11T07:49:01.258Z,16.31
2017-09-11T07:50:01.538Z,16.17
2017-09-11T07:51:01.526Z,16.2
2017-09-11T07:52:01.199Z,16.32
2017-09-11T07:53:01.176Z,16.1
2017-09-11T07:54:01.481Z,16.23
2017-09-11T07:55:01.149Z,16.34
2017-09-11T07:56:01.141Z,16.31
2017-09-11T07:57:01.434Z,16.35
2017-09-11T07:58:00.790Z,16.43
2017-09-11T07:59:01.090Z,16.41
2017-09-11T08:00:01.075Z,16.36
2017-09-11T08:01:01.049Z,16.32
2017-09-11T08:02:01.358Z,16.21
2017-09-11T08:03:01.352Z,16.26
2017-09-11T08:04:01.311Z,16.27
2017-09-11T08:05:01.301Z,16.34
2017-09-11T08:06:01.299Z,16.5
2017-09-11T08:07:01.250Z,16.32
2017-09-11T08:08:01.250Z,16.46
2017-09-11T08:09:01.249Z,16.41
2017-09-11T08:10:00.586Z,16.46
2017-09-11T08:11:01.202Z,16.58
2017-09-11T08:12:00.563Z,16.78
2017-09-11T08:13:01.149Z,16.57
2017-09-11T08:14:01.150Z,16.71
2017-09-11T08:15:01.149Z,17.31
2017-09-11T08:16:01.109Z,17.64
2017-09-11T08:17:00.840Z,17.65
2017-09-11T08:18:00.768Z,17.49
2017-09-11T08:19:00.569Z,17.26
2017-09-11T08:20:00.740Z,17.52
2017-09-11T08:21:00.544Z,17.95
2017-09-11T08:22:00.709Z,17.98
2017-09-11T08:23:00.854Z,17.8
2017-09-11T08:24:00.685Z,17.86
2017-09-11T08:25:01.099Z,18.3
2017-09-11T08:26:00.975Z,18.6
2017-09-11T08:27:01.122Z,18.59
2017-09-11T08:28:00.641Z,18.85
2017-09-11T08:29:01.050Z,19.11
2017-09-11T08:30:00.910Z,18.8
2017-09-11T08:31:00.981Z,18.47
2017-09-11T08:32:00.590Z,18.4
2017-09-11T08:33:00.650Z,18.25
2017-09-11T08:34:00.893Z,18.42
2017-09-11T08:35:00.870Z,18.66
2017-09-11T08:36:00.894Z,18.52
2017-09-11T08:37:00.535Z,18.26
2017-09-11T08:38:00.541Z,18.02
2017-09-11T08:39:00.590Z,17.95
2017-09-11T08:40:00.163Z,17.85
2017-09-11T08:41:00.573Z,18.01
2017-09-11T08:42:00.455Z,17.95
2017-09-11T08:43:00.853Z,17.86
2017-09-11T08:44:00.429Z,17.89
2017-09-11T08:45:00.419Z,17.77
2017-09-11T08:46:00.719Z,17.45
2017-09-11T08:47:00.706Z,17.6
2017-09-11T08:48:00.693Z,17.36
2017-09-11T08:49:00.391Z,17.21
2017-09-11T08:50:00.769Z,17.14
2017-09-11T08:51:00.391Z,17.24
2017-09-11T08:52:00.640Z,17.24
2017-09-11T08:53:00.619Z,17.54
2017-09-11T08:54:00.280Z,17.75
2017-09-11T08:55:00.259Z,17.98
2017-09-11T08:56:00.260Z,17.67
2017-09-11T08:57:00.245Z,17.75
2017-09-11T08:58:00.231Z,17.85
2017-09-11T08:59:00.519Z,18.35
2017-09-11T08:59:59.911Z,18.7
2017-09-11T09:01:00.585Z,19.28
2017-09-11T09:02:00.511Z,19.21
2017-09-11T09:03:00.544Z,19.52
2017-09-11T09:03:59.843Z,20.07
2017-09-11T09:05:00.450Z,20.69
2017-09-11T09:06:00.479Z,21.07
2017-09-11T09:07:00.106Z,21.31
2017-09-11T09:08:00.141Z,20.73
2017-09-11T09:09:00.107Z,20.47
2017-09-11T09:10:00.078Z,20.28
2017-09-11T09:11:00.401Z,20.4
2017-09-11T09:12:00.378Z,19.92
2017-09-11T09:13:00.070Z,20.22
2017-09-11T09:14:00.051Z,20.62
2017-09-11T09:15:00.360Z,20.73
2017-09-11T09:16:00.352Z,20.67
2017-09-11T09:17:00.330Z,21.28
2017-09-11T09:18:00.021Z,21.25
2017-09-11T09:19:00.310Z,21.17
2017-09-11T09:20:00.310Z,21.26
2017-09-11T09:21:00.305Z,21.26
2017-09-11T09:21:59.981Z,20.91
2017-09-11T09:23:00.300Z,20.97
2017-09-11T09:24:00.270Z,20.85
2017-09-11T09:25:00.273Z,20.58
2017-09-11T09:25:59.950Z,20.6
2017-09-11T09:27:00.260Z,20.28
2017-09-11T09:27:59.944Z,20.41
2017-09-11T09:28:59.926Z,20.41
2017-09-11T09:30:00.236Z,19.55
2017-09-11T09:31:00.310Z,19.83
2017-09-11T09:31:59.902Z,20.13
2017-09-11T09:33:00.230Z,20.72
2017-09-11T09:34:00.265Z,20.57
2017-09-11T09:35:00.270Z,20.92
2017-09-11T09:35:59.857Z,20.6
2017-09-11T09:36:59.886Z,20.32
2017-09-11T09:38:00.173Z,20.16
2017-09-11T09:39:00.141Z,20.26
2017-09-11T09:40:00.155Z,20.32
2017-09-11T09:41:00.142Z,20.28
2017-09-11T09:42:00.132Z,19.78
2017-09-11T09:43:00.106Z,18.84
2017-09-11T09:44:00.177Z,18.82
2017-09-11T09:45:00.103Z,18.75
2017-09-11T09:46:00.122Z,18.8
2017-09-11T09:46:59.762Z,18.82
2017-09-11T09:48:00.069Z,18.96
2017-09-11T09:49:00.052Z,18.75
2017-09-11T09:50:00.075Z,18.6
2017-09-11T09:51:00.022Z,18.6
2017-09-11T09:52:00.014Z,18.63
2017-09-11T09:52:59.994Z,18.87
2017-09-11T09:54:00.000Z,19.06
2017-09-11T09:54:59.962Z,19.19
2017-09-11T09:55:59.955Z,19.49
2017-09-11T09:56:59.964Z,19.96
2017-09-11T09:57:59.934Z,20.33
2017-09-11T09:58:59.615Z,20.48
2017-09-11T09:59:59.920Z,20.99
2017-09-11T10:00:59.941Z,21.49
2017-09-11T10:01:59.590Z,21.43
2017-09-11T10:02:59.885Z,21.76
2017-09-11T10:03:59.863Z,22.08
2017-09-11T10:04:59.866Z,21.92
2017-09-11T10:05:59.543Z,22.2
2017-09-11T10:06:59.522Z,21.95
2017-09-11T10:07:59.845Z,21.34
2017-09-11T10:08:59.826Z,21.22
2017-09-11T10:09:59.812Z,20.44
2017-09-11T10:10:59.483Z,20.06
2017-09-11T10:11:59.480Z,20.2
2017-09-11T10:12:59.784Z,20.18
2017-09-11T10:13:59.478Z,19.86
2017-09-11T10:14:59.740Z,20.01
2017-09-11T10:15:59.739Z,19.81
2017-09-11T10:16:59.731Z,19.51
2017-09-11T10:17:59.394Z,19.67
2017-09-11T10:18:59.386Z,20.17
2017-09-11T10:19:59.684Z,20.4
2017-09-11T10:20:59.370Z,20.14
2017-09-11T10:21:59.691Z,20.18
2017-09-11T10:22:59.660Z,20.06
2017-09-11T10:23:59.322Z,19.95
2017-09-11T10:24:59.320Z,19.59
2017-09-11T10:25:59.623Z,19.51
2017-09-11T10:26:59.610Z,19.37
2017-09-11T10:27:58.962Z,19.16
2017-09-11T10:28:59.590Z,19.28
2017-09-11T10:29:59.551Z,19.16
2017-09-11T10:30:59.551Z,19.28
2017-09-11T10:31:59.545Z,19.07
2017-09-11T10:32:59.533Z,18.97
2017-09-11T10:33:59.511Z,19.14
2017-09-11T10:34:59.511Z,19.25
2017-09-11T10:35:59.480Z,19.7
2017-09-11T10:36:59.473Z,19.26
2017-09-11T10:37:59.448Z,19.4
2017-09-11T10:38:59.591Z,20.01
2017-09-11T10:39:59.119Z,20.07
2017-09-11T10:40:59.431Z,20.04
2017-09-11T10:41:59.408Z,20.33
2017-09-11T10:42:59.395Z,20.91
2017-09-11T10:43:59.393Z,20.7
2017-09-11T10:44:59.458Z,21.19
2017-09-11T10:45:59.029Z,21.33
2017-09-11T10:46:59.424Z,20.6
2017-09-11T10:47:59.010Z,20.6
2017-09-11T10:48:59.407Z,20.44
2017-09-11T10:49:59.292Z,20.2
2017-09-11T10:50:58.980Z,20.14
2017-09-11T10:51:59.270Z,20.18
2017-09-11T10:52:58.632Z,20.17
2017-09-11T10:53:58.620Z,20.43
2017-09-11T10:54:58.621Z,20.82
2017-09-11T10:55:58.910Z,21.03
2017-09-11T10:56:58.891Z,20.47
2017-09-11T10:57:59.203Z,20.36
2017-09-11T10:58:59.172Z,20.69
2017-09-11T10:59:59.171Z,21.18
2017-09-11T11:00:59.203Z,21.02
2017-09-11T11:01:59.153Z,20.7
2017-09-11T11:02:59.134Z,21.39
2017-09-11T11:03:59.100Z,21.47
2017-09-11T11:04:58.809Z,20.92
2017-09-11T11:05:58.770Z,20.51
2017-09-11T11:06:58.766Z,20.18
2017-09-11T11:07:58.754Z,20.32
2017-09-11T11:08:58.737Z,20.41
2017-09-11T11:09:59.033Z,20.66
2017-09-11T11:10:59.017Z,20.49
2017-09-11T11:11:59.001Z,20.91
2017-09-11T11:12:58.993Z,21.33
2017-09-11T11:13:58.681Z,21.26
2017-09-11T11:14:58.990Z,20.94
2017-09-11T11:15:58.644Z,20.62
2017-09-11T11:16:58.642Z,20.66
2017-09-11T11:17:58.619Z,20.48
2017-09-11T11:18:58.920Z,20.69
2017-09-11T11:19:58.898Z,20.97
2017-09-11T11:20:58.901Z,20.84
2017-09-11T11:21:58.882Z,20.95
2017-09-11T11:22:58.869Z,21.13
2017-09-11T11:23:58.853Z,21.26
2017-09-11T11:24:58.860Z,21.47
2017-09-11T11:25:58.822Z,21.44
2017-09-11T11:26:58.809Z,21.41
2017-09-11T11:27:58.573Z,20.76
2017-09-11T11:28:58.483Z,20.29
2017-09-11T11:29:58.460Z,20.33
2017-09-11T11:30:58.750Z,20.44
2017-09-11T11:31:58.754Z,20.49
2017-09-11T11:32:58.427Z,20.38
2017-09-11T11:33:58.150Z,20.64
2017-09-11T11:34:58.705Z,20.74
2017-09-11T11:35:58.379Z,20.41
2017-09-11T11:36:58.370Z,20.76
2017-09-11T11:37:58.052Z,20.94
2017-09-11T11:38:58.657Z,21.31
2017-09-11T11:39:58.343Z,21.44
2017-09-11T11:40:58.625Z,21.33
2017-09-11T11:41:58.319Z,20.97
2017-09-11T11:42:58.291Z,20.92
2017-09-11T11:43:58.599Z,20.7
2017-09-11T11:44:58.380Z,20.63
2017-09-11T11:45:58.561Z,20.52
2017-09-11T11:46:58.260Z,20.33
2017-09-11T11:47:58.240Z,20.76
2017-09-11T11:48:58.541Z,21.15
2017-09-11T11:49:58.553Z,21.11
2017-09-11T11:50:58.249Z,21.04
2017-09-11T11:51:57.876Z,20.82
2017-09-11T11:52:58.514Z,20.57
2017-09-11T11:53:58.465Z,20.35
2017-09-11T11:54:58.240Z,19.93
2017-09-11T11:55:58.129Z,19.93
2017-09-11T11:56:58.442Z,19.92
2017-09-11T11:57:58.100Z,19.53
2017-09-11T11:58:58.089Z,19.38
2017-09-11T11:59:58.392Z,19.59
2017-09-11T12:00:58.129Z,19.77
2017-09-11T12:01:58.452Z,20.23
2017-09-11T12:02:58.340Z,20.48
2017-09-11T12:03:58.400Z,20.47
2017-09-11T12:04:58.321Z,20.44
2017-09-11T12:05:57.999Z,20.44
2017-09-11T12:06:57.982Z,20.48
2017-09-11T12:07:58.310Z,20.33
2017-09-11T12:08:58.260Z,20.22
2017-09-11T12:09:58.289Z,20.32
2017-09-11T12:10:58.239Z,20.41
2017-09-11T12:11:57.911Z,20.54
2017-09-11T12:12:58.219Z,20.7
2017-09-11T12:13:57.880Z,20.52
2017-09-11T12:14:57.871Z,20.73
2017-09-11T12:15:58.173Z,20.95
2017-09-11T12:16:58.151Z,21.1
2017-09-11T12:17:57.830Z,21.17
2017-09-11T12:18:58.118Z,21.29
2017-09-11T12:19:58.129Z,20.94
2017-09-11T12:20:57.791Z,21.1
2017-09-11T12:21:57.780Z,21.33
2017-09-11T12:22:58.071Z,21.62
2017-09-11T12:23:58.070Z,21.34
2017-09-11T12:24:58.059Z,21.29
2017-09-11T12:25:57.742Z,20.94
2017-09-11T12:26:57.719Z,21.09
2017-09-11T12:27:58.000Z,21.24
2017-09-11T12:28:58.000Z,21.06
2017-09-11T12:29:57.682Z,20.88
2017-09-11T12:30:57.964Z,20.73
2017-09-11T12:31:57.955Z,20.73
2017-09-11T12:32:57.949Z,20.43
2017-09-11T12:33:57.940Z,20.43
2017-09-11T12:34:57.922Z,20.43
2017-09-11T12:35:57.290Z,20.33
2017-09-11T12:36:57.574Z,20.18
2017-09-11T12:37:57.871Z,19.77
2017-09-11T12:38:57.870Z,19.61
2017-09-11T12:39:57.546Z,19.55
2017-09-11T12:40:57.854Z,19.63
2017-09-11T12:41:57.821Z,19.52
2017-09-11T12:42:57.828Z,19.62
2017-09-11T12:43:57.492Z,20.03
2017-09-11T12:44:57.789Z,20.49
2017-09-11T12:45:57.791Z,20.81
2017-09-11T12:46:57.759Z,20.54
2017-09-11T12:47:57.751Z,20.84
2017-09-11T12:48:57.735Z,21.07
2017-09-11T12:49:57.730Z,20.89
2017-09-11T12:50:57.714Z,21.07
2017-09-11T12:51:57.714Z,21.07
2017-09-11T12:52:57.351Z,20.66
2017-09-11T12:53:57.680Z,20.69
2017-09-11T12:54:57.669Z,20.08
2017-09-11T12:55:57.335Z,20.26